sensor_id;sensor_type;location;lat;lon;timestamp;pressure;altitude;pressure_sealevel;temperature;humidity
71917;BME280;59793;46.506;6.674;2023-05-08T00:00:44;97533.00;;;16.27;84.36
71917;BME280;59793;46.506;6.674;2023-05-08T00:03:09;97528.47;;;16.31;84.17
71917;BME280;59793;46.506;6.674;2023-05-08T00:05:35;97534.19;;;16.33;83.98
71917;BME280;59793;46.506;6.674;2023-05-08T00:08:00;97539.94;;;16.38;83.76
71917;BME280;59793;46.506;6.674;2023-05-08T00:10:28;97532.00;;;16.42;83.61
71917;BME280;59793;46.506;6.674;2023-05-08T00:12:54;97545.34;;;16.49;83.29
71917;BME280;59793;46.506;6.674;2023-05-08T00:15:19;97540.03;;;16.49;83.01
71917;BME280;59793;46.506;6.674;2023-05-08T00:17:45;97542.31;;;16.47;83.29
71917;BME280;59793;46.506;6.674;2023-05-08T00:20:10;97544.56;;;16.45;83.28
71917;BME280;59793;46.506;6.674;2023-05-08T00:22:36;97533.91;;;16.45;83.45
71917;BME280;59793;46.506;6.674;2023-05-08T00:25:01;97536.94;;;16.40;83.43
71917;BME280;59793;46.506;6.674;2023-05-08T00:27:28;97548.72;;;16.42;83.62
71917;BME280;59793;46.506;6.674;2023-05-08T00:29:53;97539.97;;;16.42;83.90
71917;BME280;59793;46.506;6.674;2023-05-08T00:32:19;97537.72;;;16.44;83.77
71917;BME280;59793;46.506;6.674;2023-05-08T00:34:44;97544.56;;;16.45;83.79
71917;BME280;59793;46.506;6.674;2023-05-08T00:37:09;97540.75;;;16.46;83.88
71917;BME280;59793;46.506;6.674;2023-05-08T00:39:34;97545.28;;;16.42;84.10
71917;BME280;59793;46.506;6.674;2023-05-08T00:41:59;97545.69;;;16.44;84.36
71917;BME280;59793;46.506;6.674;2023-05-08T00:44:25;97537.72;;;16.44;84.41
71917;BME280;59793;46.506;6.674;2023-05-08T00:46:50;97538.44;;;16.41;84.63
71917;BME280;59793;46.506;6.674;2023-05-08T00:49:16;97546.00;;;16.39;84.81
71917;BME280;59793;46.506;6.674;2023-05-08T00:51:44;97547.16;;;16.38;84.86
71917;BME280;59793;46.506;6.674;2023-05-08T00:54:10;97546.78;;;16.39;84.99
71917;BME280;59793;46.506;6.674;2023-05-08T00:56:36;97544.16;;;16.43;84.68
71917;BME280;59793;46.506;6.674;2023-05-08T00:59:02;97541.13;;;16.44;84.69
71917;BME280;59793;46.506;6.674;2023-05-08T01:01:27;97546.03;;;16.42;85.02
71917;BME280;59793;46.506;6.674;2023-05-08T01:03:53;97543.78;;;16.41;84.88
71917;BME280;59793;46.506;6.674;2023-05-08T01:06:18;97546.03;;;16.42;85.00
71917;BME280;59793;46.506;6.674;2023-05-08T01:08:43;97547.16;;;16.38;85.27
71917;BME280;59793;46.506;6.674;2023-05-08T01:11:28;97546.34;;;16.34;85.68
71917;BME280;59793;46.506;6.674;2023-05-08T01:17:09;97547.50;;;16.33;86.19
71917;BME280;59793;46.506;6.674;2023-05-08T01:24:43;97549.25;;;16.21;87.27
71917;BME280;59793;46.506;6.674;2023-05-08T01:32:42;97552.53;;;16.45;85.86
71917;BME280;59793;46.506;6.674;2023-05-08T01:35:20;97549.16;;;16.48;85.55
71917;BME280;59793;46.506;6.674;2023-05-08T01:38:07;97551.38;;;16.42;85.49
71917;BME280;59793;46.506;6.674;2023-05-08T01:40:45;97560.81;;;16.36;85.35
71917;BME280;59793;46.506;6.674;2023-05-08T01:45:49;97555.84;;;16.35;84.94
71917;BME280;59793;46.506;6.674;2023-05-08T01:48:32;97553.16;;;16.31;84.90
71917;BME280;59793;46.506;6.674;2023-05-08T01:51:02;97547.91;;;16.38;84.68
71917;BME280;59793;46.506;6.674;2023-05-08T01:53:29;97549.09;;;16.41;83.85
71917;BME280;59793;46.506;6.674;2023-05-08T01:55:58;97547.81;;;16.28;84.45
71917;BME280;59793;46.506;6.674;2023-05-08T01:58:25;97544.09;;;16.36;84.08
71917;BME280;59793;46.506;6.674;2023-05-08T02:00:51;97541.69;;;16.23;84.29
71917;BME280;59793;46.506;6.674;2023-05-08T02:03:17;97550.44;;;16.24;84.34
71917;BME280;59793;46.506;6.674;2023-05-08T02:05:44;97542.84;;;16.22;84.50
71917;BME280;59793;46.506;6.674;2023-05-08T02:08:12;97544.34;;;16.23;84.07
71917;BME280;59793;46.506;6.674;2023-05-08T02:10:39;97538.25;;;16.19;84.08
71917;BME280;59793;46.506;6.674;2023-05-08T02:13:05;97537.59;;;16.30;84.16
71917;BME280;59793;46.506;6.674;2023-05-08T02:15:31;97539.78;;;16.20;84.96
71917;BME280;59793;46.506;6.674;2023-05-08T02:18:00;97535.28;;;16.28;84.72
71917;BME280;59793;46.506;6.674;2023-05-08T02:20:26;97534.59;;;16.35;84.53
71917;BME280;59793;46.506;6.674;2023-05-08T02:22:51;97539.91;;;16.35;84.33
71917;BME280;59793;46.506;6.674;2023-05-08T02:25:17;97548.59;;;16.32;84.31
71917;BME280;59793;46.506;6.674;2023-05-08T02:27:44;97541.78;;;16.31;84.05
71917;BME280;59793;46.506;6.674;2023-05-08T02:30:13;97538.72;;;16.32;83.61
71917;BME280;59793;46.506;6.674;2023-05-08T02:32:40;97538.38;;;16.34;83.56
71917;BME280;59793;46.506;6.674;2023-05-08T02:35:06;97545.59;;;16.33;83.62
71917;BME280;59793;46.506;6.674;2023-05-08T02:37:32;97537.84;;;16.17;84.42
71917;BME280;59793;46.506;6.674;2023-05-08T02:39:58;97549.66;;;16.20;84.32
71917;BME280;59793;46.506;6.674;2023-05-08T02:42:25;97541.25;;;16.18;84.43
71917;BME280;59793;46.506;6.674;2023-05-08T02:44:50;97546.56;;;16.18;84.41
71917;BME280;59793;46.506;6.674;2023-05-08T02:52:13;97537.97;;;15.91;84.80
71917;BME280;59793;46.506;6.674;2023-05-08T02:54:50;97533.44;;;15.95;84.94
71917;BME280;59793;46.506;6.674;2023-05-08T02:57:34;97537.28;;;15.97;85.18
71917;BME280;59793;46.506;6.674;2023-05-08T03:02:31;97546.47;;;16.07;84.67
71917;BME280;59793;46.506;6.674;2023-05-08T03:05:19;97544.16;;;16.02;84.60
71917;BME280;59793;46.506;6.674;2023-05-08T03:07:42;97548.75;;;16.05;84.47
71917;BME280;59793;46.506;6.674;2023-05-08T03:10:10;97550.75;;;15.82;85.69
71917;BME280;59793;46.506;6.674;2023-05-08T03:12:37;97542.81;;;15.85;85.55
71917;BME280;59793;46.506;6.674;2023-05-08T03:17:33;97543.88;;;15.77;85.71
71917;BME280;59793;46.506;6.674;2023-05-08T03:20:01;97541.19;;;15.73;85.53
71917;BME280;59793;46.506;6.674;2023-05-08T03:22:29;97528.25;;;15.72;85.74
71917;BME280;59793;46.506;6.674;2023-05-08T03:24:57;97536.25;;;15.75;85.60
71917;BME280;59793;46.506;6.674;2023-05-08T03:27:24;97532.41;;;15.69;85.40
71917;BME280;59793;46.506;6.674;2023-05-08T03:29:50;97533.81;;;15.63;86.01
71917;BME280;59793;46.506;6.674;2023-05-08T03:32:16;97524.59;;;15.53;85.58
71917;BME280;59793;46.506;6.674;2023-05-08T03:34:42;97531.34;;;15.47;85.64
71917;BME280;59793;46.506;6.674;2023-05-08T03:37:07;97534.34;;;15.46;85.91
71917;BME280;59793;46.506;6.674;2023-05-08T03:39:33;97529.84;;;15.50;85.90
71917;BME280;59793;46.506;6.674;2023-05-08T03:41:58;97526.06;;;15.51;85.94
71917;BME280;59793;46.506;6.674;2023-05-08T03:44:23;97528.34;;;15.49;85.75
71917;BME280;59793;46.506;6.674;2023-05-08T03:46:51;97528.63;;;15.44;85.70
71917;BME280;59793;46.506;6.674;2023-05-08T03:49:19;97529.66;;;15.36;85.57
71917;BME280;59793;46.506;6.674;2023-05-08T03:51:47;97518.28;;;15.35;86.01
71917;BME280;59793;46.506;6.674;2023-05-08T03:54:12;97525.50;;;15.35;86.15
71917;BME280;59793;46.506;6.674;2023-05-08T03:56:38;97531.19;;;15.37;86.29
71917;BME280;59793;46.506;6.674;2023-05-08T03:59:06;97522.09;;;15.34;86.37
71917;BME280;59793;46.506;6.674;2023-05-08T04:04:00;97526.13;;;15.24;86.73
71917;BME280;59793;46.506;6.674;2023-05-08T04:06:28;97526.75;;;15.14;86.91
71917;BME280;59793;46.506;6.674;2023-05-08T04:14:18;97536.94;;;15.12;86.60
71917;BME280;59793;46.506;6.674;2023-05-08T04:16:47;97539.19;;;15.10;86.54
71917;BME280;59793;46.506;6.674;2023-05-08T04:19:14;97544.19;;;15.15;86.46
71917;BME280;59793;46.506;6.674;2023-05-08T04:21:42;97547.69;;;15.23;86.21
71917;BME280;59793;46.506;6.674;2023-05-08T04:24:09;97545.56;;;15.32;85.87
71917;BME280;59793;46.506;6.674;2023-05-08T04:26:36;97547.53;;;15.39;85.73
71917;BME280;59793;46.506;6.674;2023-05-08T04:29:02;97537.47;;;15.51;85.32
71917;BME280;59793;46.506;6.674;2023-05-08T04:31:28;97551.66;;;15.63;84.96
71917;BME280;59793;46.506;6.674;2023-05-08T04:33:55;97547.63;;;15.72;84.64
71917;BME280;59793;46.506;6.674;2023-05-08T04:36:20;97549.94;;;15.77;84.30
71917;BME280;59793;46.506;6.674;2023-05-08T04:38:46;97550.28;;;15.72;84.67
71917;BME280;59793;46.506;6.674;2023-05-08T04:41:11;97560.06;;;15.68;85.22
71917;BME280;59793;46.506;6.674;2023-05-08T04:43:36;97548.34;;;15.69;85.21
71917;BME280;59793;46.506;6.674;2023-05-08T04:46:02;97555.19;;;15.70;84.83
71917;BME280;59793;46.506;6.674;2023-05-08T04:48:28;97556.03;;;15.78;84.46
71917;BME280;59793;46.506;6.674;2023-05-08T04:50:55;97549.19;;;15.77;84.25
71917;BME280;59793;46.506;6.674;2023-05-08T04:53:21;97545.44;;;15.82;83.98
71917;BME280;59793;46.506;6.674;2023-05-08T04:55:46;97552.34;;;15.90;83.52
71917;BME280;59793;46.506;6.674;2023-05-08T04:58:11;97550.19;;;15.99;83.61
71917;BME280;59793;46.506;6.674;2023-05-08T05:00:36;97553.59;;;15.99;83.83
71917;BME280;59793;46.506;6.674;2023-05-08T05:03:02;97555.91;;;16.01;83.81
71917;BME280;59793;46.506;6.674;2023-05-08T05:05:27;97548.25;;;15.96;83.62
71917;BME280;59793;46.506;6.674;2023-05-08T05:07:52;97547.41;;;15.88;84.50
71917;BME280;59793;46.506;6.674;2023-05-08T05:10:17;97551.44;;;15.75;84.91
71917;BME280;59793;46.506;6.674;2023-05-08T05:12:43;97551.28;;;15.64;85.53
71917;BME280;59793;46.506;6.674;2023-05-08T05:15:08;97550.38;;;15.53;85.87
71917;BME280;59793;46.506;6.674;2023-05-08T05:17:34;97552.63;;;15.51;85.93
71917;BME280;59793;46.506;6.674;2023-05-08T05:19:59;97563.09;;;15.40;85.97
71917;BME280;59793;46.506;6.674;2023-05-08T05:22:24;97557.44;;;15.42;85.53
71917;BME280;59793;46.506;6.674;2023-05-08T05:24:49;97563.28;;;15.54;84.76
71917;BME280;59793;46.506;6.674;2023-05-08T05:27:15;97561.09;;;15.60;84.61
71917;BME280;59793;46.506;6.674;2023-05-08T05:29:41;97562.00;;;15.71;84.54
71917;BME280;59793;46.506;6.674;2023-05-08T05:32:06;97563.72;;;15.87;84.02
71917;BME280;59793;46.506;6.674;2023-05-08T05:34:34;97574.03;;;15.92;83.39
71917;BME280;59793;46.506;6.674;2023-05-08T05:36:59;97569.97;;;16.01;82.87
71917;BME280;59793;46.506;6.674;2023-05-08T05:39:25;97574.53;;;16.01;83.65
71917;BME280;59793;46.506;6.674;2023-05-08T05:41:50;97565.50;;;16.09;83.36
71917;BME280;59793;46.506;6.674;2023-05-08T05:44:15;97569.28;;;16.08;83.30
71917;BME280;59793;46.506;6.674;2023-05-08T05:46:40;97577.00;;;16.20;83.16
71917;BME280;59793;46.506;6.674;2023-05-08T05:49:06;97573.25;;;16.29;82.76
71917;BME280;59793;46.506;6.674;2023-05-08T05:51:31;97571.28;;;16.18;83.34
71917;BME280;59793;46.506;6.674;2023-05-08T05:53:56;97580.81;;;16.23;83.37
71917;BME280;59793;46.506;6.674;2023-05-08T05:56:22;97575.66;;;16.37;83.22
71917;BME280;59793;46.506;6.674;2023-05-08T05:58:47;97574.94;;;16.44;83.21
71917;BME280;59793;46.506;6.674;2023-05-08T06:01:12;97581.00;;;16.41;81.94
71917;BME280;59793;46.506;6.674;2023-05-08T06:03:38;97578.34;;;16.41;81.39
71917;BME280;59793;46.506;6.674;2023-05-08T06:06:03;97584.97;;;16.20;82.42
71917;BME280;59793;46.506;6.674;2023-05-08T06:08:29;97581.25;;;16.29;82.85
71917;BME280;59793;46.506;6.674;2023-05-08T06:10:54;97594.53;;;16.29;83.64
71917;BME280;59793;46.506;6.674;2023-05-08T06:13:19;97594.56;;;16.32;83.52
71917;BME280;59793;46.506;6.674;2023-05-08T06:15:45;97594.91;;;15.93;85.48
71917;BME280;59793;46.506;6.674;2023-05-08T06:18:10;97604.22;;;16.10;84.58
71917;BME280;59793;46.506;6.674;2023-05-08T06:20:38;97602.97;;;16.00;85.76
71917;BME280;59793;46.506;6.674;2023-05-08T06:23:04;97600.09;;;15.83;86.01
71917;BME280;59793;46.506;6.674;2023-05-08T06:25:29;97604.88;;;16.00;85.84
71917;BME280;59793;46.506;6.674;2023-05-08T06:27:55;97601.59;;;15.80;87.17
71917;BME280;59793;46.506;6.674;2023-05-08T06:30:20;97605.03;;;15.81;87.23
71917;BME280;59793;46.506;6.674;2023-05-08T06:32:45;97600.75;;;16.06;85.86
71917;BME280;59793;46.506;6.674;2023-05-08T06:35:11;97596.00;;;16.22;85.37
71917;BME280;59793;46.506;6.674;2023-05-08T06:37:36;97597.34;;;16.06;85.95
71917;BME280;59793;46.506;6.674;2023-05-08T06:40:01;97597.59;;;15.97;86.21
71917;BME280;59793;46.506;6.674;2023-05-08T06:42:27;97608.63;;;15.95;86.74
71917;BME280;59793;46.506;6.674;2023-05-08T06:44:53;97607.94;;;16.02;86.64
71917;BME280;59793;46.506;6.674;2023-05-08T06:47:18;97594.75;;;15.79;87.69
71917;BME280;59793;46.506;6.674;2023-05-08T06:49:43;97603.63;;;15.90;87.26
71917;BME280;59793;46.506;6.674;2023-05-08T06:52:09;97605.03;;;16.14;85.59
71917;BME280;59793;46.506;6.674;2023-05-08T06:54:34;97595.19;;;16.15;85.79
71917;BME280;59793;46.506;6.674;2023-05-08T06:56:59;97603.06;;;16.45;83.74
71917;BME280;59793;46.506;6.674;2023-05-08T06:59:25;97601.06;;;16.72;82.34
71917;BME280;59793;46.506;6.674;2023-05-08T07:01:50;97599.25;;;16.83;81.88
71917;BME280;59793;46.506;6.674;2023-05-08T07:04:15;97604.72;;;17.01;80.76
71917;BME280;59793;46.506;6.674;2023-05-08T07:06:41;97593.28;;;16.93;81.02
71917;BME280;59793;46.506;6.674;2023-05-08T07:09:06;97603.63;;;17.09;80.39
71917;BME280;59793;46.506;6.674;2023-05-08T07:11:31;97604.84;;;17.19;80.80
71917;BME280;59793;46.506;6.674;2023-05-08T07:13:57;97600.63;;;17.11;79.08
71917;BME280;59793;46.506;6.674;2023-05-08T07:16:22;97602.19;;;17.19;79.59
71917;BME280;59793;46.506;6.674;2023-05-08T07:18:47;97609.09;;;17.27;79.15
71917;BME280;59793;46.506;6.674;2023-05-08T07:21:12;97601.84;;;17.28;79.15
71917;BME280;59793;46.506;6.674;2023-05-08T07:23:39;97606.06;;;17.29;78.42
71917;BME280;59793;46.506;6.674;2023-05-08T07:26:06;97606.31;;;17.13;78.98
71917;BME280;59793;46.506;6.674;2023-05-08T07:28:32;97609.09;;;17.27;79.03
71917;BME280;59793;46.506;6.674;2023-05-08T07:30:57;97608.72;;;17.25;78.94
71917;BME280;59793;46.506;6.674;2023-05-08T07:33:22;97611.34;;;17.22;79.10
71917;BME280;59793;46.506;6.674;2023-05-08T07:35:48;97616.78;;;17.39;79.25
71917;BME280;59793;46.506;6.674;2023-05-08T07:38:13;97613.78;;;17.48;77.90
71917;BME280;59793;46.506;6.674;2023-05-08T07:40:38;97609.94;;;17.42;78.12
71917;BME280;59793;46.506;6.674;2023-05-08T07:43:03;97613.38;;;17.39;78.25
71917;BME280;59793;46.506;6.674;2023-05-08T07:45:29;97618.38;;;17.51;78.05
71917;BME280;59793;46.506;6.674;2023-05-08T07:47:55;97603.94;;;17.56;77.12
71917;BME280;59793;46.506;6.674;2023-05-08T07:50:21;97606.44;;;17.31;78.08
71917;BME280;59793;46.506;6.674;2023-05-08T07:52:47;97603.13;;;17.48;78.69
71917;BME280;59793;46.506;6.674;2023-05-08T07:55:12;97603.94;;;17.56;76.67
71917;BME280;59793;46.506;6.674;2023-05-08T07:57:38;97598.53;;;17.45;77.45
71917;BME280;59793;46.506;6.674;2023-05-08T08:00:05;97596.84;;;17.78;76.83
71917;BME280;59793;46.506;6.674;2023-05-08T08:02:30;97597.28;;;17.94;75.80
71917;BME280;59793;46.506;6.674;2023-05-08T08:04:55;97604.56;;;18.04;74.41
71917;BME280;59793;46.506;6.674;2023-05-08T08:07:20;97596.97;;;18.06;74.67
71917;BME280;59793;46.506;6.674;2023-05-08T08:09:46;97600.75;;;18.12;74.20
71917;BME280;59793;46.506;6.674;2023-05-08T08:12:11;97597.31;;;18.01;74.14
71917;BME280;59793;46.506;6.674;2023-05-08T08:14:36;97601.81;;;17.86;75.45
71917;BME280;59793;46.506;6.674;2023-05-08T08:17:01;97599.16;;;17.83;74.64
71917;BME280;59793;46.506;6.674;2023-05-08T08:19:27;97599.06;;;17.68;75.36
71917;BME280;59793;46.506;6.674;2023-05-08T08:21:52;97601.72;;;17.72;75.07
71917;BME280;59793;46.506;6.674;2023-05-08T08:24:17;97593.44;;;17.84;73.83
71917;BME280;59793;46.506;6.674;2023-05-08T08:26:42;97594.50;;;17.73;74.80
71917;BME280;59793;46.506;6.674;2023-05-08T08:29:07;97587.66;;;17.72;74.93
71917;BME280;59793;46.506;6.674;2023-05-08T08:31:33;97584.28;;;17.82;75.03
71917;BME280;59793;46.506;6.674;2023-05-08T08:33:58;97583.00;;;17.54;76.87
71917;BME280;59793;46.506;6.674;2023-05-08T08:36:23;97591.13;;;17.76;75.80
71917;BME280;59793;46.506;6.674;2023-05-08T08:38:49;97586.47;;;17.65;75.99
71917;BME280;59793;46.506;6.674;2023-05-08T08:41:14;97582.88;;;18.13;76.30
71917;BME280;59793;46.506;6.674;2023-05-08T08:43:39;97580.97;;;18.06;74.90
71917;BME280;59793;46.506;6.674;2023-05-08T08:46:10;97584.75;;;18.12;74.99
71917;BME280;59793;46.506;6.674;2023-05-08T08:48:37;97581.75;;;18.25;74.46
71917;BME280;59793;46.506;6.674;2023-05-08T08:51:07;97577.56;;;18.17;74.19
71917;BME280;59793;46.506;6.674;2023-05-08T08:53:38;97578.72;;;18.33;73.13
71917;BME280;59793;46.506;6.674;2023-05-08T08:56:06;97578.69;;;18.23;73.71
71917;BME280;59793;46.506;6.674;2023-05-08T08:58:35;97576.03;;;18.26;74.54
71917;BME280;59793;46.506;6.674;2023-05-08T09:01:02;97582.88;;;18.09;74.77
71917;BME280;59793;46.506;6.674;2023-05-08T09:03:29;97584.06;;;18.40;72.30
71917;BME280;59793;46.506;6.674;2023-05-08T09:05:54;97578.31;;;18.10;73.99
71917;BME280;59793;46.506;6.674;2023-05-08T09:08:20;97578.88;;;17.67;75.72
71917;BME280;59793;46.506;6.674;2023-05-08T09:10:45;97587.19;;;17.55;75.98
71917;BME280;59793;46.506;6.674;2023-05-08T09:13:11;97579.47;;;17.32;77.83
71917;BME280;59793;46.506;6.674;2023-05-08T09:15:36;97585.75;;;17.06;78.83
71917;BME280;59793;46.506;6.674;2023-05-08T09:18:01;97583.56;;;17.23;78.26
71917;BME280;59793;46.506;6.674;2023-05-08T09:20:27;97584.47;;;17.48;75.88
71917;BME280;59793;46.506;6.674;2023-05-08T09:22:52;97583.19;;;17.90;73.85
71917;BME280;59793;46.506;6.674;2023-05-08T09:25:18;97587.88;;;18.39;71.02
71917;BME280;59793;46.506;6.674;2023-05-08T09:27:43;97583.66;;;18.24;70.94
71917;BME280;59793;46.506;6.674;2023-05-08T09:30:09;97593.91;;;18.08;71.43
71917;BME280;59793;46.506;6.674;2023-05-08T09:32:36;97594.13;;;17.71;72.87
71917;BME280;59793;46.506;6.674;2023-05-08T09:35:02;97593.72;;;17.65;72.00
71917;BME280;59793;46.506;6.674;2023-05-08T09:37:28;97589.28;;;17.94;70.71
71917;BME280;59793;46.506;6.674;2023-05-08T09:39:53;97593.53;;;18.09;70.72
71917;BME280;59793;46.506;6.674;2023-05-08T09:42:18;97594.31;;;18.17;70.59
71917;BME280;59793;46.506;6.674;2023-05-08T09:47:13;97592.84;;;18.41;69.65
71917;BME280;59793;46.506;6.674;2023-05-08T09:49:39;97588.28;;;18.52;68.72
71917;BME280;59793;46.506;6.674;2023-05-08T09:52:05;97595.19;;;18.85;68.17
71917;BME280;59793;46.506;6.674;2023-05-08T09:54:30;97596.72;;;19.19;66.78
71917;BME280;59793;46.506;6.674;2023-05-08T09:56:57;97592.84;;;19.41;63.48
71917;BME280;59793;46.506;6.674;2023-05-08T09:59:23;97598.94;;;19.56;63.20
71917;BME280;59793;46.506;6.674;2023-05-08T10:01:50;97589.75;;;19.68;63.46
71917;BME280;59793;46.506;6.674;2023-05-08T10:04:15;97601.25;;;19.65;63.68
71917;BME280;59793;46.506;6.674;2023-05-08T10:06:40;97597.84;;;19.25;65.02
71917;BME280;59793;46.506;6.674;2023-05-08T10:09:09;97595.94;;;19.18;64.05
71917;BME280;59793;46.506;6.674;2023-05-08T10:11:36;97599.78;;;19.03;65.49
71917;BME280;59793;46.506;6.674;2023-05-08T10:14:02;97604.72;;;19.04;65.02
71917;BME280;59793;46.506;6.674;2023-05-08T10:16:28;97597.50;;;19.16;64.62
71917;BME280;59793;46.506;6.674;2023-05-08T10:18:53;97595.19;;;19.18;64.35
71917;BME280;59793;46.506;6.674;2023-05-08T10:21:21;97606.25;;;19.09;65.66
71917;BME280;59793;46.506;6.674;2023-05-08T10:23:48;97610.41;;;19.46;63.74
71917;BME280;59793;46.506;6.674;2023-05-08T10:26:18;97596.63;;;19.62;63.27
71917;BME280;59793;46.506;6.674;2023-05-08T10:28:49;97595.88;;;19.43;63.55
71917;BME280;59793;46.506;6.674;2023-05-08T10:31:19;97597.75;;;19.61;61.58
71917;BME280;59793;46.506;6.674;2023-05-08T10:33:45;97594.72;;;19.66;61.42
71917;BME280;59793;46.506;6.674;2023-05-08T10:36:14;97593.19;;;19.72;61.73
71917;BME280;59793;46.506;6.674;2023-05-08T10:38:40;97589.34;;;19.80;60.50
71917;BME280;59793;46.506;6.674;2023-05-08T10:41:05;97587.84;;;19.50;60.36
71917;BME280;59793;46.506;6.674;2023-05-08T10:43:31;97593.56;;;19.67;59.72
71917;BME280;59793;46.506;6.674;2023-05-08T10:45:56;97602.00;;;19.65;59.92
71917;BME280;59793;46.506;6.674;2023-05-08T10:51:10;97584.00;;;19.80;58.92
71917;BME280;59793;46.506;6.674;2023-05-08T10:56:15;97583.66;;;19.64;58.79
71917;BME280;59793;46.506;6.674;2023-05-08T10:58:41;97587.50;;;19.52;59.30
71917;BME280;59793;46.506;6.674;2023-05-08T11:03:32;97582.94;;;19.42;60.07
71917;BME280;59793;46.506;6.674;2023-05-08T11:06:01;97575.28;;;19.47;60.78
71917;BME280;59793;46.506;6.674;2023-05-08T11:08:27;97570.66;;;19.58;60.06
71917;BME280;59793;46.506;6.674;2023-05-08T11:11:01;97567.50;;;19.89;59.40
71917;BME280;59793;46.506;6.674;2023-05-08T11:13:33;97561.31;;;20.06;58.88
71917;BME280;59793;46.506;6.674;2023-05-08T11:15:59;97566.00;;;19.84;59.74
71917;BME280;59793;46.506;6.674;2023-05-08T11:18:25;97569.03;;;19.97;58.78
71917;BME280;59793;46.506;6.674;2023-05-08T11:20:58;97568.97;;;20.08;58.55
71917;BME280;59793;46.506;6.674;2023-05-08T11:23:27;97559.03;;;20.08;58.43
71917;BME280;59793;46.506;6.674;2023-05-08T11:28:30;97555.53;;;20.15;59.58
71917;BME280;59793;46.506;6.674;2023-05-08T11:30:55;97554.97;;;20.41;58.81
71917;BME280;59793;46.506;6.674;2023-05-08T11:33:21;97559.88;;;20.57;56.61
71917;BME280;59793;46.506;6.674;2023-05-08T11:38:16;97550.00;;;20.43;56.44
71917;BME280;59793;46.506;6.674;2023-05-08T11:43:23;97555.38;;;20.43;56.35
71917;BME280;59793;46.506;6.674;2023-05-08T11:45:50;97560.19;;;20.66;57.19
71917;BME280;59793;46.506;6.674;2023-05-08T11:48:16;97543.91;;;20.91;56.66
71917;BME280;59793;46.506;6.674;2023-05-08T11:50:43;97547.03;;;20.86;56.25
71917;BME280;59793;46.506;6.674;2023-05-08T11:53:08;97549.19;;;20.98;54.87
71917;BME280;59793;46.506;6.674;2023-05-08T11:55:33;97543.91;;;20.91;54.99
71917;BME280;59793;46.506;6.674;2023-05-08T11:57:59;97541.16;;;20.98;54.78
71917;BME280;59793;46.506;6.674;2023-05-08T12:00:24;97535.25;;;21.18;54.20
71917;BME280;59793;46.506;6.674;2023-05-08T12:02:49;97537.84;;;21.25;53.76
71917;BME280;59793;46.506;6.674;2023-05-08T12:05:14;97535.47;;;21.31;54.00
71917;BME280;59793;46.506;6.674;2023-05-08T12:07:50;97536.66;;;21.30;53.55
71917;BME280;59793;46.506;6.674;2023-05-08T12:10:15;97536.00;;;21.18;55.06
71917;BME280;59793;46.506;6.674;2023-05-08T12:12:41;97537.34;;;21.37;55.09
71917;BME280;59793;46.506;6.674;2023-05-08T12:15:10;97532.78;;;21.38;55.62
71917;BME280;59793;46.506;6.674;2023-05-08T12:17:36;97538.88;;;21.38;55.04
71917;BME280;59793;46.506;6.674;2023-05-08T12:20:15;97534.97;;;21.46;55.54
71917;BME280;59793;46.506;6.674;2023-05-08T12:22:40;97542.28;;;21.01;56.71
71917;BME280;59793;46.506;6.674;2023-05-08T12:25:06;97533.31;;;21.18;54.50
71917;BME280;59793;46.506;6.674;2023-05-08T12:27:32;97526.19;;;21.42;53.94
71917;BME280;59793;46.506;6.674;2023-05-08T12:29:58;97537.63;;;21.09;58.63
71917;BME280;59793;46.506;6.674;2023-05-08T12:32:24;97537.22;;;20.69;56.47
71917;BME280;59793;46.506;6.674;2023-05-08T12:34:50;97536.31;;;20.86;54.65
71917;BME280;59793;46.506;6.674;2023-05-08T12:37:22;97534.97;;;20.64;55.09
71917;BME280;59793;46.506;6.674;2023-05-08T12:39:48;97532.97;;;20.75;54.68
71917;BME280;59793;46.506;6.674;2023-05-08T12:42:13;97534.59;;;21.07;54.47
71917;BME280;59793;46.506;6.674;2023-05-08T12:44:38;97536.69;;;21.26;54.68
71917;BME280;59793;46.506;6.674;2023-05-08T12:47:04;97530.91;;;21.31;54.01
71917;BME280;59793;46.506;6.674;2023-05-08T12:49:30;97534.44;;;21.21;53.96
71917;BME280;59793;46.506;6.674;2023-05-08T12:52:05;97537.06;;;21.28;55.93
71917;BME280;59793;46.506;6.674;2023-05-08T12:54:37;97529.69;;;21.39;53.91
71917;BME280;59793;46.506;6.674;2023-05-08T12:57:10;97528.72;;;21.57;53.08
71917;BME280;59793;46.506;6.674;2023-05-08T12:59:35;97534.53;;;21.14;56.36
71917;BME280;59793;46.506;6.674;2023-05-08T13:02:01;97547.44;;;21.22;56.14
71917;BME280;59793;46.506;6.674;2023-05-08T13:04:26;97539.91;;;20.69;58.22
71917;BME280;59793;46.506;6.674;2023-05-08T13:06:54;97544.97;;;19.93;59.12
71917;BME280;59793;46.506;6.674;2023-05-08T13:09:20;97539.75;;;19.65;59.87
71917;BME280;59793;46.506;6.674;2023-05-08T13:11:47;97534.75;;;19.59;61.07
71917;BME280;59793;46.506;6.674;2023-05-08T13:14:12;97538.41;;;20.01;59.88
71917;BME280;59793;46.506;6.674;2023-05-08T13:16:41;97531.63;;;19.90;60.64
71917;BME280;59793;46.506;6.674;2023-05-08T13:19:06;97526.31;;;19.79;60.77
71917;BME280;59793;46.506;6.674;2023-05-08T13:21:31;97527.88;;;19.73;61.07
71917;BME280;59793;46.506;6.674;2023-05-08T13:23:56;97518.78;;;19.49;60.01
71917;BME280;59793;46.506;6.674;2023-05-08T13:26:22;97519.94;;;19.44;59.88
71917;BME280;59793;46.506;6.674;2023-05-08T13:28:48;97515.69;;;19.50;60.46
71917;BME280;59793;46.506;6.674;2023-05-08T13:31:13;97515.19;;;19.84;59.84
71917;BME280;59793;46.506;6.674;2023-05-08T13:33:39;97520.16;;;19.86;60.94
71917;BME280;59793;46.506;6.674;2023-05-08T13:36:04;97511.84;;;19.69;59.70
71917;BME280;59793;46.506;6.674;2023-05-08T13:38:29;97514.00;;;19.92;59.44
71917;BME280;59793;46.506;6.674;2023-05-08T13:40:54;97505.59;;;19.94;59.08
71917;BME280;59793;46.506;6.674;2023-05-08T13:43:20;97509.50;;;20.38;58.02
71917;BME280;59793;46.506;6.674;2023-05-08T13:45:45;97504.66;;;20.74;56.50
71917;BME280;59793;46.506;6.674;2023-05-08T13:48:10;97502.09;;;20.60;56.81